LFBT/LDE METAR and TAF weather

Enter ICAO airport designator
Station Type Date Time Source
LFBT METAR 2020/06/06 14:00 UTC NOAA

LFBT 061400Z AUTO 26004KT 220V290 9999 OVC026 17/13 Q1010 NOSIG


Station Type Date Time Source
LFBT Decoded METAR 2020/06/06 14:00 UTC NOAA

Tarbes Ossun Lourdes, France (LFBT) 43-11N 000-00W 363M
Jun 06, 2020 - 10:00 AM EDT / 2020.06.06 1400 UTC
Wind: from the W (260 degrees) at 5 MPH (4 KT) (direction variable):0
Visibility: greater than 7 mile(s):0
Sky conditions: overcast
Temperature: 62 F (17 C)
Dew Point: 55 F (13 C)
Relative Humidity: 77%
Pressure (altimeter): 29.83 in. Hg (1010 hPa)
ob: LFBT 061400Z AUTO 26004KT 220V290 9999 OVC026 17/13 Q1010 NOSIG
cycle: 14

Station Type Date Time Source
LFBT TAF 2020/06/06 12:21 UTC NOAA

TAF LFBT 061100Z 0612/0712 26006KT 9999 BKN030 BKN040
BECMG 0620/0622 BKN012 OVC030
TEMPO 0620/0703 4000 RA BKN008 OVC030
BECMG 0704/0706 BKN015 OVC040

Example: see airport list